This is the latest recevied weather packets stored in our database for station/object N8DMH-13. If no packets are shown the sender has not sent any weather packets the latest 10 day(s).
| Time | Temp. | Humidity | Pressure | Rain* | Wind** | Luminosity | Snow |
|---|---|---|---|---|---|---|---|
| 1777859270 | 10° C | 83% | 1002.7 hPa | 0 mm | - | - | - |
| 1777858940 | 10° C | 84% | 1003.1 hPa | 0 mm | - | - | - |
| 1777858639 | 10° C | 85% | 1003.1 hPa | 0.51 mm | - | - | - |
| 1777858309 | 10° C | 83% | 1003 hPa | 1.52 mm | - | - | - |
| 1777857979 | 10° C | 84% | 1002.8 hPa | 2.03 mm | - | - | - |
| 1777857679 | 10° C | 84% | 1002.9 hPa | 2.29 mm | - | - | - |
| 1777857349 | 10° C | 85% | 1002.8 hPa | 2.54 mm | - | - | - |
| 1777857019 | 9.44° C | 86% | 1002.8 hPa | 3.3 mm | - | - | - |
| 1777856719 | 10° C | 87% | 1002.8 hPa | 3.56 mm | - | - | - |
| 1777856389 | 10° C | 87% | 1003.1 hPa | 3.81 mm | - | - | - |
| 1777856059 | 10° C | 86% | 1003 hPa | 3.81 mm | - | - | - |
| 1777855759 | 10° C | 86% | 1003.2 hPa | 3.81 mm | - | - | - |
| 1777855458 | 10° C | 85% | 1003.1 hPa | 3.81 mm | - | - | - |
| 1777855128 | 10.56° C | 85% | 1003.2 hPa | 3.81 mm | - | - | - |
| 1777854828 | 10.56° C | 85% | 1003.5 hPa | 3.3 mm | - | - | - |
| 1777854498 | 11.11° C | 83% | 1003.9 hPa | 2.29 mm | - | - | - |
| 1777854198 | 11.11° C | 83% | 1003.9 hPa | 1.78 mm | - | - | - |
| 1777853898 | 11.67° C | 80% | 1004.1 hPa | 1.52 mm | - | - | - |
| 1777853568 | 12.22° C | 77% | 1004.2 hPa | 1.27 mm | - | - | - |
| 1777853267 | 12.22° C | 75% | 1004.2 hPa | 1.02 mm | - | - | - |
| 1777852938 | 13.33° C | 73% | 1004.1 hPa | 0.51 mm | - | - | - |
| 1777852637 | 13.89° C | 69% | 1003.8 hPa | 0.25 mm | - | - | - |
| 1777852337 | 14.44° C | 60% | 1003.7 hPa | 0 mm | - | - | - |
| 1777852037 | 14.44° C | 56% | 1003.7 hPa | 0 mm | - | - | - |
| 1777851708 | 15° C | 54% | 1003.5 hPa | 0 mm | - | - | - |
* Rain latest hour (hover to see other rain measurements)
** Current wind speed in m/s (hover to see current wind gust speed)